sensor_id;sensor_type;location;lat;lon;timestamp;P1;durP1;ratioP1;P2;durP2;ratioP2
1262;SDS011;62267;50.112;8.704;2023-05-09T00:01:08;19.40;;;17.40;;
1262;SDS011;62267;50.112;8.704;2023-05-09T00:03:39;19.30;;;17.20;;
1262;SDS011;62267;50.112;8.704;2023-05-09T00:06:09;21.47;;;19.17;;
1262;SDS011;62267;50.112;8.704;2023-05-09T00:08:39;22.20;;;19.17;;
1262;SDS011;62267;50.112;8.704;2023-05-09T00:11:12;22.87;;;17.77;;
1262;SDS011;62267;50.112;8.704;2023-05-09T00:13:43;19.10;;;17.03;;
1262;SDS011;62267;50.112;8.704;2023-05-09T00:16:12;22.03;;;18.23;;
1262;SDS011;62267;50.112;8.704;2023-05-09T00:18:42;23.30;;;19.90;;
1262;SDS011;62267;50.112;8.704;2023-05-09T00:21:10;21.70;;;19.40;;
1262;SDS011;62267;50.112;8.704;2023-05-09T00:23:42;20.73;;;18.53;;
1262;SDS011;62267;50.112;8.704;2023-05-09T00:26:10;20.20;;;18.10;;
1262;SDS011;62267;50.112;8.704;2023-05-09T00:28:43;21.67;;;19.37;;
1262;SDS011;62267;50.112;8.704;2023-05-09T00:31:11;20.50;;;18.30;;
1262;SDS011;62267;50.112;8.704;2023-05-09T00:33:41;24.20;;;17.97;;
1262;SDS011;62267;50.112;8.704;2023-05-09T00:36:10;24.83;;;19.80;;
1262;SDS011;62267;50.112;8.704;2023-05-09T00:38:38;22.87;;;19.93;;
1262;SDS011;62267;50.112;8.704;2023-05-09T00:41:06;21.00;;;18.80;;
1262;SDS011;62267;50.112;8.704;2023-05-09T00:43:34;21.23;;;19.07;;
1262;SDS011;62267;50.112;8.704;2023-05-09T00:46:04;22.50;;;19.97;;
1262;SDS011;62267;50.112;8.704;2023-05-09T00:48:32;21.23;;;18.90;;
1262;SDS011;62267;50.112;8.704;2023-05-09T00:51:01;22.57;;;19.70;;
1262;SDS011;62267;50.112;8.704;2023-05-09T00:53:28;22.67;;;19.47;;
1262;SDS011;62267;50.112;8.704;2023-05-09T00:55:57;21.80;;;19.50;;
1262;SDS011;62267;50.112;8.704;2023-05-09T00:58:26;22.67;;;19.13;;
1262;SDS011;62267;50.112;8.704;2023-05-09T01:00:55;22.90;;;19.70;;
1262;SDS011;62267;50.112;8.704;2023-05-09T01:03:27;22.10;;;19.57;;
1262;SDS011;62267;50.112;8.704;2023-05-09T01:06:03;23.93;;;19.60;;
1262;SDS011;62267;50.112;8.704;2023-05-09T01:08:36;24.03;;;20.60;;
1262;SDS011;62267;50.112;8.704;2023-05-09T01:11:09;22.00;;;19.33;;
1262;SDS011;62267;50.112;8.704;2023-05-09T01:18:56;21.90;;;19.50;;
1262;SDS011;62267;50.112;8.704;2023-05-09T01:21:25;23.33;;;18.70;;
1262;SDS011;62267;50.112;8.704;2023-05-09T01:29:13;21.67;;;19.13;;
1262;SDS011;62267;50.112;8.704;2023-05-09T01:31:42;21.73;;;19.07;;
1262;SDS011;62267;50.112;8.704;2023-05-09T01:34:10;23.07;;;18.90;;
1262;SDS011;62267;50.112;8.704;2023-05-09T01:36:39;22.37;;;19.43;;
1262;SDS011;62267;50.112;8.704;2023-05-09T01:39:11;22.77;;;19.67;;
1262;SDS011;62267;50.112;8.704;2023-05-09T01:41:40;21.80;;;19.43;;
1262;SDS011;62267;50.112;8.704;2023-05-09T01:44:08;21.60;;;18.10;;
1262;SDS011;62267;50.112;8.704;2023-05-09T01:46:38;22.20;;;19.17;;
1262;SDS011;62267;50.112;8.704;2023-05-09T01:49:06;21.57;;;18.50;;
1262;SDS011;62267;50.112;8.704;2023-05-09T01:51:35;22.17;;;19.77;;
1262;SDS011;62267;50.112;8.704;2023-05-09T01:54:04;23.67;;;19.73;;
1262;SDS011;62267;50.112;8.704;2023-05-09T01:56:32;22.50;;;20.03;;
1262;SDS011;62267;50.112;8.704;2023-05-09T01:59:01;23.30;;;20.33;;
1262;SDS011;62267;50.112;8.704;2023-05-09T02:01:29;22.30;;;19.37;;
1262;SDS011;62267;50.112;8.704;2023-05-09T02:03:57;22.83;;;19.20;;
1262;SDS011;62267;50.112;8.704;2023-05-09T02:06:24;22.57;;;19.60;;
1262;SDS011;62267;50.112;8.704;2023-05-09T02:08:56;22.63;;;19.60;;
1262;SDS011;62267;50.112;8.704;2023-05-09T02:11:24;21.80;;;19.50;;
1262;SDS011;62267;50.112;8.704;2023-05-09T02:13:52;20.80;;;18.70;;
1262;SDS011;62267;50.112;8.704;2023-05-09T02:16:19;20.87;;;18.67;;
1262;SDS011;62267;50.112;8.704;2023-05-09T02:18:47;23.03;;;18.70;;
1262;SDS011;62267;50.112;8.704;2023-05-09T02:21:15;21.47;;;19.23;;
1262;SDS011;62267;50.112;8.704;2023-05-09T02:23:43;25.63;;;18.53;;
1262;SDS011;62267;50.112;8.704;2023-05-09T02:26:10;21.63;;;19.30;;
1262;SDS011;62267;50.112;8.704;2023-05-09T02:28:38;22.00;;;18.93;;
1262;SDS011;62267;50.112;8.704;2023-05-09T02:31:06;20.90;;;18.80;;
1262;SDS011;62267;50.112;8.704;2023-05-09T02:33:34;21.60;;;19.23;;
1262;SDS011;62267;50.112;8.704;2023-05-09T02:36:03;22.87;;;19.57;;
1262;SDS011;62267;50.112;8.704;2023-05-09T02:38:31;21.60;;;18.97;;
1262;SDS011;62267;50.112;8.704;2023-05-09T02:41:01;21.80;;;19.00;;
1262;SDS011;62267;50.112;8.704;2023-05-09T02:43:29;22.60;;;19.23;;
1262;SDS011;62267;50.112;8.704;2023-05-09T02:45:57;22.90;;;19.47;;
1262;SDS011;62267;50.112;8.704;2023-05-09T02:48:25;23.70;;;19.50;;
1262;SDS011;62267;50.112;8.704;2023-05-09T02:50:55;23.60;;;19.70;;
1262;SDS011;62267;50.112;8.704;2023-05-09T02:53:23;25.30;;;19.90;;
1262;SDS011;62267;50.112;8.704;2023-05-09T02:55:51;26.10;;;20.10;;
1262;SDS011;62267;50.112;8.704;2023-05-09T02:58:19;21.97;;;19.03;;
1262;SDS011;62267;50.112;8.704;2023-05-09T03:00:47;22.67;;;18.50;;
1262;SDS011;62267;50.112;8.704;2023-05-09T03:03:14;23.23;;;20.63;;
1262;SDS011;62267;50.112;8.704;2023-05-09T03:05:44;23.60;;;19.60;;
1262;SDS011;62267;50.112;8.704;2023-05-09T03:08:11;20.47;;;18.27;;
1262;SDS011;62267;50.112;8.704;2023-05-09T03:10:39;24.13;;;20.77;;
1262;SDS011;62267;50.112;8.704;2023-05-09T03:13:07;20.83;;;17.90;;
1262;SDS011;62267;50.112;8.704;2023-05-09T03:15:35;23.23;;;20.07;;
1262;SDS011;62267;50.112;8.704;2023-05-09T03:18:03;25.47;;;20.80;;
1262;SDS011;62267;50.112;8.704;2023-05-09T03:20:31;22.53;;;19.70;;
1262;SDS011;62267;50.112;8.704;2023-05-09T03:23:00;23.90;;;20.30;;
1262;SDS011;62267;50.112;8.704;2023-05-09T03:25:27;24.10;;;20.93;;
1262;SDS011;62267;50.112;8.704;2023-05-09T03:27:55;24.70;;;20.97;;
1262;SDS011;62267;50.112;8.704;2023-05-09T03:30:22;22.47;;;18.90;;
1262;SDS011;62267;50.112;8.704;2023-05-09T03:32:50;25.90;;;20.97;;
1262;SDS011;62267;50.112;8.704;2023-05-09T03:35:18;23.20;;;20.10;;
1262;SDS011;62267;50.112;8.704;2023-05-09T03:37:45;28.93;;;20.77;;
1262;SDS011;62267;50.112;8.704;2023-05-09T03:40:12;25.07;;;20.90;;
1262;SDS011;62267;50.112;8.704;2023-05-09T03:42:47;25.73;;;22.13;;
1262;SDS011;62267;50.112;8.704;2023-05-09T03:45:15;27.47;;;22.10;;
1262;SDS011;62267;50.112;8.704;2023-05-09T03:47:44;24.97;;;20.57;;
1262;SDS011;62267;50.112;8.704;2023-05-09T03:50:12;27.60;;;21.33;;
1262;SDS011;62267;50.112;8.704;2023-05-09T03:52:41;23.43;;;19.30;;
1262;SDS011;62267;50.112;8.704;2023-05-09T03:55:08;25.40;;;20.90;;
1262;SDS011;62267;50.112;8.704;2023-05-09T03:57:36;24.97;;;21.67;;
1262;SDS011;62267;50.112;8.704;2023-05-09T04:00:03;27.17;;;20.77;;
1262;SDS011;62267;50.112;8.704;2023-05-09T04:02:39;24.80;;;19.07;;
1262;SDS011;62267;50.112;8.704;2023-05-09T04:05:09;26.87;;;20.97;;
1262;SDS011;62267;50.112;8.704;2023-05-09T04:07:37;23.60;;;20.37;;
1262;SDS011;62267;50.112;8.704;2023-05-09T04:10:05;24.70;;;19.97;;
1262;SDS011;62267;50.112;8.704;2023-05-09T04:12:33;35.97;;;25.20;;
1262;SDS011;62267;50.112;8.704;2023-05-09T04:15:00;29.20;;;20.97;;
1262;SDS011;62267;50.112;8.704;2023-05-09T04:17:29;29.03;;;20.43;;
1262;SDS011;62267;50.112;8.704;2023-05-09T04:19:56;24.17;;;19.67;;
1262;SDS011;62267;50.112;8.704;2023-05-09T04:22:24;25.97;;;21.87;;
1262;SDS011;62267;50.112;8.704;2023-05-09T04:24:51;25.57;;;21.10;;
1262;SDS011;62267;50.112;8.704;2023-05-09T04:27:18;25.57;;;20.50;;
1262;SDS011;62267;50.112;8.704;2023-05-09T04:29:46;26.67;;;20.70;;
1262;SDS011;62267;50.112;8.704;2023-05-09T04:32:14;27.23;;;20.67;;
1262;SDS011;62267;50.112;8.704;2023-05-09T04:34:42;24.40;;;20.63;;
1262;SDS011;62267;50.112;8.704;2023-05-09T04:37:15;26.70;;;22.90;;
1262;SDS011;62267;50.112;8.704;2023-05-09T04:39:44;26.07;;;21.17;;
1262;SDS011;62267;50.112;8.704;2023-05-09T04:42:23;23.57;;;20.83;;
1262;SDS011;62267;50.112;8.704;2023-05-09T04:44:50;29.07;;;22.30;;
1262;SDS011;62267;50.112;8.704;2023-05-09T04:47:20;26.77;;;21.70;;
1262;SDS011;62267;50.112;8.704;2023-05-09T04:49:47;33.07;;;23.37;;
1262;SDS011;62267;50.112;8.704;2023-05-09T04:52:15;24.33;;;20.60;;
1262;SDS011;62267;50.112;8.704;2023-05-09T04:54:42;28.10;;;20.73;;
1262;SDS011;62267;50.112;8.704;2023-05-09T04:57:10;28.47;;;21.73;;
1262;SDS011;62267;50.112;8.704;2023-05-09T04:59:48;25.23;;;20.93;;
1262;SDS011;62267;50.112;8.704;2023-05-09T05:02:16;32.00;;;22.57;;
1262;SDS011;62267;50.112;8.704;2023-05-09T05:04:45;27.63;;;21.10;;
1262;SDS011;62267;50.112;8.704;2023-05-09T05:07:14;26.60;;;21.20;;
1262;SDS011;62267;50.112;8.704;2023-05-09T05:09:43;24.40;;;20.43;;
1262;SDS011;62267;50.112;8.704;2023-05-09T05:12:10;26.70;;;21.57;;
1262;SDS011;62267;50.112;8.704;2023-05-09T05:14:40;29.30;;;22.07;;
1262;SDS011;62267;50.112;8.704;2023-05-09T05:17:10;28.10;;;20.47;;
1262;SDS011;62267;50.112;8.704;2023-05-09T05:19:37;27.70;;;22.37;;
1262;SDS011;62267;50.112;8.704;2023-05-09T05:22:06;25.37;;;19.80;;
1262;SDS011;62267;50.112;8.704;2023-05-09T05:24:36;24.80;;;21.03;;
1262;SDS011;62267;50.112;8.704;2023-05-09T05:27:04;37.47;;;30.17;;
1262;SDS011;62267;50.112;8.704;2023-05-09T05:29:32;26.37;;;21.60;;
1262;SDS011;62267;50.112;8.704;2023-05-09T05:31:59;25.40;;;21.53;;
1262;SDS011;62267;50.112;8.704;2023-05-09T05:34:27;27.80;;;21.60;;
1262;SDS011;62267;50.112;8.704;2023-05-09T05:36:54;25.27;;;20.80;;
1262;SDS011;62267;50.112;8.704;2023-05-09T05:39:21;25.00;;;21.03;;
1262;SDS011;62267;50.112;8.704;2023-05-09T05:41:50;24.37;;;20.70;;
1262;SDS011;62267;50.112;8.704;2023-05-09T05:44:18;27.43;;;21.23;;
1262;SDS011;62267;50.112;8.704;2023-05-09T05:46:45;25.73;;;20.63;;
1262;SDS011;62267;50.112;8.704;2023-05-09T05:49:13;29.30;;;22.20;;
1262;SDS011;62267;50.112;8.704;2023-05-09T05:51:40;25.93;;;20.90;;
1262;SDS011;62267;50.112;8.704;2023-05-09T05:54:08;24.87;;;20.03;;
1262;SDS011;62267;50.112;8.704;2023-05-09T05:56:36;24.20;;;20.47;;
1262;SDS011;62267;50.112;8.704;2023-05-09T05:59:08;25.60;;;21.50;;
1262;SDS011;62267;50.112;8.704;2023-05-09T06:01:38;26.63;;;21.17;;
1262;SDS011;62267;50.112;8.704;2023-05-09T06:04:05;24.37;;;20.97;;
1262;SDS011;62267;50.112;8.704;2023-05-09T06:06:33;28.70;;;19.93;;
1262;SDS011;62267;50.112;8.704;2023-05-09T06:09:01;25.40;;;20.63;;
1262;SDS011;62267;50.112;8.704;2023-05-09T06:11:29;26.70;;;20.37;;
1262;SDS011;62267;50.112;8.704;2023-05-09T06:13:57;23.10;;;20.30;;
1262;SDS011;62267;50.112;8.704;2023-05-09T06:16:25;23.60;;;19.77;;
1262;SDS011;62267;50.112;8.704;2023-05-09T06:18:52;22.13;;;18.93;;
1262;SDS011;62267;50.112;8.704;2023-05-09T06:21:21;24.83;;;19.97;;
1262;SDS011;62267;50.112;8.704;2023-05-09T06:23:48;26.50;;;20.37;;
1262;SDS011;62267;50.112;8.704;2023-05-09T06:26:35;18.90;;;16.90;;
1262;SDS011;62267;50.112;8.704;2023-05-09T06:29:03;23.63;;;19.87;;
1262;SDS011;62267;50.112;8.704;2023-05-09T06:31:33;20.37;;;18.20;;
1262;SDS011;62267;50.112;8.704;2023-05-09T06:34:04;22.80;;;20.20;;
1262;SDS011;62267;50.112;8.704;2023-05-09T06:36:32;22.50;;;18.27;;
1262;SDS011;62267;50.112;8.704;2023-05-09T06:38:59;21.97;;;18.67;;
1262;SDS011;62267;50.112;8.704;2023-05-09T06:41:27;20.20;;;18.07;;
1262;SDS011;62267;50.112;8.704;2023-05-09T06:43:54;22.97;;;19.03;;
1262;SDS011;62267;50.112;8.704;2023-05-09T06:46:21;40.27;;;19.13;;
1262;SDS011;62267;50.112;8.704;2023-05-09T06:48:48;30.13;;;22.57;;
1262;SDS011;62267;50.112;8.704;2023-05-09T06:51:15;21.90;;;18.83;;
1262;SDS011;62267;50.112;8.704;2023-05-09T06:53:43;19.70;;;17.50;;
1262;SDS011;62267;50.112;8.704;2023-05-09T06:56:10;20.10;;;17.97;;
1262;SDS011;62267;50.112;8.704;2023-05-09T06:58:37;18.80;;;16.90;;
1262;SDS011;62267;50.112;8.704;2023-05-09T07:01:05;19.80;;;17.70;;
1262;SDS011;62267;50.112;8.704;2023-05-09T07:03:32;20.00;;;18.00;;
1262;SDS011;62267;50.112;8.704;2023-05-09T07:05:59;19.53;;;17.43;;
1262;SDS011;62267;50.112;8.704;2023-05-09T07:08:26;21.40;;;18.40;;
1262;SDS011;62267;50.112;8.704;2023-05-09T07:10:54;21.43;;;17.97;;
1262;SDS011;62267;50.112;8.704;2023-05-09T07:13:21;22.90;;;18.27;;
1262;SDS011;62267;50.112;8.704;2023-05-09T07:15:48;27.50;;;20.40;;
1262;SDS011;62267;50.112;8.704;2023-05-09T07:18:16;19.80;;;17.70;;
1262;SDS011;62267;50.112;8.704;2023-05-09T07:20:43;20.80;;;18.60;;
1262;SDS011;62267;50.112;8.704;2023-05-09T07:23:10;25.03;;;17.23;;
1262;SDS011;62267;50.112;8.704;2023-05-09T07:25:37;21.30;;;17.90;;
1262;SDS011;62267;50.112;8.704;2023-05-09T07:28:04;22.30;;;18.87;;
1262;SDS011;62267;50.112;8.704;2023-05-09T07:30:32;18.83;;;16.60;;
1262;SDS011;62267;50.112;8.704;2023-05-09T07:32:59;22.07;;;19.03;;
1262;SDS011;62267;50.112;8.704;2023-05-09T07:35:27;21.37;;;17.27;;
1262;SDS011;62267;50.112;8.704;2023-05-09T07:37:54;20.90;;;18.63;;
1262;SDS011;62267;50.112;8.704;2023-05-09T07:40:21;20.97;;;18.80;;
1262;SDS011;62267;50.112;8.704;2023-05-09T07:42:49;19.73;;;17.17;;
1262;SDS011;62267;50.112;8.704;2023-05-09T07:45:18;22.73;;;20.30;;
1262;SDS011;62267;50.112;8.704;2023-05-09T07:47:49;20.77;;;17.63;;
1262;SDS011;62267;50.112;8.704;2023-05-09T07:50:16;22.50;;;19.50;;
1262;SDS011;62267;50.112;8.704;2023-05-09T07:52:44;20.23;;;16.83;;
1262;SDS011;62267;50.112;8.704;2023-05-09T07:55:11;18.53;;;16.57;;
1262;SDS011;62267;50.112;8.704;2023-05-09T07:57:38;23.07;;;18.07;;
1262;SDS011;62267;50.112;8.704;2023-05-09T08:00:06;20.27;;;18.17;;
1262;SDS011;62267;50.112;8.704;2023-05-09T08:02:38;20.53;;;18.43;;
1262;SDS011;62267;50.112;8.704;2023-05-09T08:05:06;18.43;;;16.60;;
1262;SDS011;62267;50.112;8.704;2023-05-09T08:07:33;18.17;;;16.23;;
1262;SDS011;62267;50.112;8.704;2023-05-09T08:10:01;18.60;;;16.70;;
1262;SDS011;62267;50.112;8.704;2023-05-09T08:12:29;17.60;;;15.80;;
1262;SDS011;62267;50.112;8.704;2023-05-09T08:14:56;19.73;;;16.50;;
1262;SDS011;62267;50.112;8.704;2023-05-09T08:17:23;17.83;;;15.93;;
1262;SDS011;62267;50.112;8.704;2023-05-09T08:19:51;17.53;;;15.73;;
1262;SDS011;62267;50.112;8.704;2023-05-09T08:22:18;16.80;;;15.10;;
1262;SDS011;62267;50.112;8.704;2023-05-09T08:24:46;17.50;;;15.67;;
1262;SDS011;62267;50.112;8.704;2023-05-09T08:27:13;17.53;;;15.73;;
1262;SDS011;62267;50.112;8.704;2023-05-09T08:29:41;18.43;;;16.03;;
1262;SDS011;62267;50.112;8.704;2023-05-09T08:32:08;17.27;;;15.50;;
1262;SDS011;62267;50.112;8.704;2023-05-09T08:34:35;21.27;;;16.50;;
1262;SDS011;62267;50.112;8.704;2023-05-09T08:37:03;20.93;;;18.40;;
1262;SDS011;62267;50.112;8.704;2023-05-09T08:39:30;19.83;;;16.10;;
1262;SDS011;62267;50.112;8.704;2023-05-09T08:42:00;18.47;;;16.23;;
1262;SDS011;62267;50.112;8.704;2023-05-09T08:44:28;19.90;;;17.90;;
1262;SDS011;62267;50.112;8.704;2023-05-09T08:46:58;19.53;;;17.47;;
1262;SDS011;62267;50.112;8.704;2023-05-09T08:49:26;20.13;;;16.83;;
1262;SDS011;62267;50.112;8.704;2023-05-09T08:51:54;21.47;;;17.00;;
1262;SDS011;62267;50.112;8.704;2023-05-09T08:54:22;19.87;;;16.07;;
1262;SDS011;62267;50.112;8.704;2023-05-09T08:56:51;22.53;;;17.10;;
1262;SDS011;62267;50.112;8.704;2023-05-09T08:59:18;23.50;;;18.57;;
1262;SDS011;62267;50.112;8.704;2023-05-09T09:01:45;18.30;;;15.33;;
1262;SDS011;62267;50.112;8.704;2023-05-09T09:04:13;21.00;;;16.70;;
1262;SDS011;62267;50.112;8.704;2023-05-09T09:06:40;18.57;;;16.37;;
1262;SDS011;62267;50.112;8.704;2023-05-09T09:09:08;17.90;;;16.07;;
1262;SDS011;62267;50.112;8.704;2023-05-09T09:11:37;18.23;;;16.27;;
1262;SDS011;62267;50.112;8.704;2023-05-09T09:14:11;16.90;;;15.10;;
1262;SDS011;62267;50.112;8.704;2023-05-09T09:16:42;23.13;;;16.80;;
1262;SDS011;62267;50.112;8.704;2023-05-09T09:19:12;20.60;;;18.40;;
1262;SDS011;62267;50.112;8.704;2023-05-09T09:21:39;16.27;;;14.50;;
1262;SDS011;62267;50.112;8.704;2023-05-09T09:24:08;15.80;;;14.30;;
1262;SDS011;62267;50.112;8.704;2023-05-09T09:26:47;17.53;;;15.83;;
1262;SDS011;62267;50.112;8.704;2023-05-09T09:29:15;18.17;;;16.33;;
1262;SDS011;62267;50.112;8.704;2023-05-09T09:31:44;17.57;;;15.30;;
1262;SDS011;62267;50.112;8.704;2023-05-09T09:34:12;17.33;;;15.53;;
1262;SDS011;62267;50.112;8.704;2023-05-09T09:36:39;19.60;;;16.57;;
1262;SDS011;62267;50.112;8.704;2023-05-09T09:39:07;19.77;;;16.30;;
1262;SDS011;62267;50.112;8.704;2023-05-09T09:41:38;19.93;;;16.40;;
1262;SDS011;62267;50.112;8.704;2023-05-09T09:44:06;18.90;;;16.90;;
1262;SDS011;62267;50.112;8.704;2023-05-09T09:46:41;20.30;;;16.60;;
1262;SDS011;62267;50.112;8.704;2023-05-09T09:49:09;18.73;;;15.57;;
1262;SDS011;62267;50.112;8.704;2023-05-09T09:51:36;18.00;;;16.07;;
1262;SDS011;62267;50.112;8.704;2023-05-09T09:54:07;18.03;;;16.13;;
1262;SDS011;62267;50.112;8.704;2023-05-09T09:56:42;16.57;;;14.83;;
1262;SDS011;62267;50.112;8.704;2023-05-09T09:59:13;16.10;;;14.50;;
1262;SDS011;62267;50.112;8.704;2023-05-09T10:01:54;17.10;;;15.37;;
1262;SDS011;62267;50.112;8.704;2023-05-09T10:04:21;23.07;;;15.00;;
1262;SDS011;62267;50.112;8.704;2023-05-09T10:06:52;18.33;;;15.60;;
1262;SDS011;62267;50.112;8.704;2023-05-09T10:09:20;16.60;;;14.87;;
1262;SDS011;62267;50.112;8.704;2023-05-09T10:11:49;16.70;;;14.37;;
1262;SDS011;62267;50.112;8.704;2023-05-09T10:14:17;18.23;;;16.33;;
1262;SDS011;62267;50.112;8.704;2023-05-09T10:16:46;17.60;;;15.80;;
1262;SDS011;62267;50.112;8.704;2023-05-09T10:19:17;17.00;;;15.30;;
1262;SDS011;62267;50.112;8.704;2023-05-09T10:21:47;17.67;;;15.10;;
1262;SDS011;62267;50.112;8.704;2023-05-09T10:24:16;18.00;;;16.20;;
1262;SDS011;62267;50.112;8.704;2023-05-09T10:26:44;17.90;;;15.90;;
1262;SDS011;62267;50.112;8.704;2023-05-09T10:29:13;18.27;;;15.90;;
1262;SDS011;62267;50.112;8.704;2023-05-09T10:31:47;19.77;;;17.40;;
1262;SDS011;62267;50.112;8.704;2023-05-09T10:34:16;17.97;;;16.07;;
1262;SDS011;62267;50.112;8.704;2023-05-09T10:36:45;19.00;;;17.00;;
1262;SDS011;62267;50.112;8.704;2023-05-09T10:39:13;17.10;;;15.40;;
1262;SDS011;62267;50.112;8.704;2023-05-09T10:41:40;18.10;;;16.30;;
1262;SDS011;62267;50.112;8.704;2023-05-09T10:44:08;16.23;;;14.63;;
1262;SDS011;62267;50.112;8.704;2023-05-09T10:46:35;16.90;;;15.20;;
1262;SDS011;62267;50.112;8.704;2023-05-09T10:49:03;21.70;;;15.33;;
1262;SDS011;62267;50.112;8.704;2023-05-09T10:51:30;16.07;;;14.43;;
1262;SDS011;62267;50.112;8.704;2023-05-09T10:53:58;16.00;;;14.30;;
1262;SDS011;62267;50.112;8.704;2023-05-09T10:56:32;19.33;;;15.20;;
1262;SDS011;62267;50.112;8.704;2023-05-09T10:59:01;22.03;;;15.40;;
1262;SDS011;62267;50.112;8.704;2023-05-09T11:01:32;17.10;;;15.30;;
1262;SDS011;62267;50.112;8.704;2023-05-09T11:04:01;18.03;;;15.30;;
1262;SDS011;62267;50.112;8.704;2023-05-09T11:06:39;18.00;;;16.13;;
1262;SDS011;62267;50.112;8.704;2023-05-09T11:12:15;17.83;;;15.93;;
1262;SDS011;62267;50.112;8.704;2023-05-09T11:14:42;20.73;;;17.60;;
1262;SDS011;62267;50.112;8.704;2023-05-09T11:22:20;19.13;;;17.03;;
1262;SDS011;62267;50.112;8.704;2023-05-09T11:24:49;18.80;;;16.10;;
1262;SDS011;62267;50.112;8.704;2023-05-09T11:27:18;22.30;;;17.47;;
1262;SDS011;62267;50.112;8.704;2023-05-09T11:29:49;19.30;;;17.30;;
1262;SDS011;62267;50.112;8.704;2023-05-09T11:32:20;20.90;;;17.33;;
1262;SDS011;62267;50.112;8.704;2023-05-09T11:34:48;18.13;;;16.20;;
1262;SDS011;62267;50.112;8.704;2023-05-09T11:37:16;22.13;;;17.70;;
1262;SDS011;62267;50.112;8.704;2023-05-09T11:39:57;19.60;;;17.60;;
1262;SDS011;62267;50.112;8.704;2023-05-09T11:42:28;20.53;;;16.67;;
1262;SDS011;62267;50.112;8.704;2023-05-09T11:44:56;19.70;;;17.60;;
1262;SDS011;62267;50.112;8.704;2023-05-09T11:47:24;21.70;;;16.33;;
1262;SDS011;62267;50.112;8.704;2023-05-09T11:49:54;17.73;;;15.87;;
1262;SDS011;62267;50.112;8.704;2023-05-09T11:52:21;18.53;;;16.50;;
1262;SDS011;62267;50.112;8.704;2023-05-09T11:54:50;23.50;;;17.83;;
1262;SDS011;62267;50.112;8.704;2023-05-09T11:57:17;21.10;;;18.33;;
1262;SDS011;62267;50.112;8.704;2023-05-09T11:59:46;21.30;;;17.77;;
1262;SDS011;62267;50.112;8.704;2023-05-09T12:02:14;17.73;;;15.87;;
1262;SDS011;62267;50.112;8.704;2023-05-09T12:04:44;20.00;;;17.90;;
1262;SDS011;62267;50.112;8.704;2023-05-09T12:07:11;16.53;;;14.60;;
1262;SDS011;62267;50.112;8.704;2023-05-09T12:09:38;19.37;;;16.90;;
1262;SDS011;62267;50.112;8.704;2023-05-09T12:12:08;20.43;;;18.33;;
1262;SDS011;62267;50.112;8.704;2023-05-09T12:14:36;18.77;;;15.90;;
1262;SDS011;62267;50.112;8.704;2023-05-09T12:17:08;19.00;;;15.50;;
1262;SDS011;62267;50.112;8.704;2023-05-09T12:19:36;19.27;;;16.03;;
1262;SDS011;62267;50.112;8.704;2023-05-09T12:22:03;15.87;;;14.27;;
1262;SDS011;62267;50.112;8.704;2023-05-09T12:24:33;18.90;;;16.27;;
1262;SDS011;62267;50.112;8.704;2023-05-09T12:27:01;16.53;;;14.77;;
1262;SDS011;62267;50.112;8.704;2023-05-09T12:29:28;17.03;;;14.80;;
1262;SDS011;62267;50.112;8.704;2023-05-09T12:31:58;18.90;;;15.67;;
1262;SDS011;62267;50.112;8.704;2023-05-09T12:34:26;17.30;;;15.53;;
1262;SDS011;62267;50.112;8.704;2023-05-09T12:36:53;20.50;;;16.23;;
1262;SDS011;62267;50.112;8.704;2023-05-09T12:39:21;17.30;;;15.50;;
1262;SDS011;62267;50.112;8.704;2023-05-09T12:41:50;15.40;;;13.73;;
1262;SDS011;62267;50.112;8.704;2023-05-09T12:44:27;16.70;;;13.10;;
1262;SDS011;62267;50.112;8.704;2023-05-09T12:46:56;14.03;;;12.47;;
1262;SDS011;62267;50.112;8.704;2023-05-09T12:49:24;14.90;;;13.30;;
1262;SDS011;62267;50.112;8.704;2023-05-09T12:51:52;12.77;;;11.57;;
1262;SDS011;62267;50.112;8.704;2023-05-09T12:54:23;14.13;;;12.63;;
1262;SDS011;62267;50.112;8.704;2023-05-09T12:56:50;14.87;;;13.47;;
1262;SDS011;62267;50.112;8.704;2023-05-09T12:59:23;16.03;;;14.37;;
1262;SDS011;62267;50.112;8.704;2023-05-09T13:01:52;20.27;;;16.97;;
1262;SDS011;62267;50.112;8.704;2023-05-09T13:04:20;18.60;;;16.60;;
1262;SDS011;62267;50.112;8.704;2023-05-09T13:06:48;16.67;;;14.83;;
1262;SDS011;62267;50.112;8.704;2023-05-09T13:09:17;19.43;;;16.33;;
1262;SDS011;62267;50.112;8.704;2023-05-09T13:11:45;19.67;;;16.40;;
1262;SDS011;62267;50.112;8.704;2023-05-09T13:14:13;17.17;;;15.37;;
1262;SDS011;62267;50.112;8.704;2023-05-09T13:16:40;19.10;;;16.77;;
1262;SDS011;62267;50.112;8.704;2023-05-09T13:19:07;18.60;;;16.00;;
1262;SDS011;62267;50.112;8.704;2023-05-09T13:21:35;18.77;;;15.83;;
1262;SDS011;62267;50.112;8.704;2023-05-09T13:24:04;18.03;;;15.80;;
1262;SDS011;62267;50.112;8.704;2023-05-09T13:26:31;18.37;;;15.70;;
1262;SDS011;62267;50.112;8.704;2023-05-09T13:28:59;19.20;;;16.10;;
1262;SDS011;62267;50.112;8.704;2023-05-09T13:31:27;18.43;;;15.67;;
1262;SDS011;62267;50.112;8.704;2023-05-09T13:33:54;17.20;;;14.97;;
1262;SDS011;62267;50.112;8.704;2023-05-09T13:36:22;22.40;;;16.50;;
1262;SDS011;62267;50.112;8.704;2023-05-09T13:38:50;17.67;;;15.73;;
1262;SDS011;62267;50.112;8.704;2023-05-09T13:41:19;18.00;;;15.07;;
1262;SDS011;62267;50.112;8.704;2023-05-09T13:43:48;19.73;;;16.93;;
1262;SDS011;62267;50.112;8.704;2023-05-09T13:46:15;18.47;;;16.13;;
1262;SDS011;62267;50.112;8.704;2023-05-09T13:48:43;17.60;;;15.70;;
1262;SDS011;62267;50.112;8.704;2023-05-09T13:51:12;19.90;;;15.27;;
1262;SDS011;62267;50.112;8.704;2023-05-09T13:53:41;17.57;;;14.87;;
1262;SDS011;62267;50.112;8.704;2023-05-09T13:56:14;18.67;;;16.40;;
1262;SDS011;62267;50.112;8.704;2023-05-09T13:58:42;19.63;;;17.53;;
1262;SDS011;62267;50.112;8.704;2023-05-09T14:01:09;17.30;;;15.43;;
1262;SDS011;62267;50.112;8.704;2023-05-09T14:03:38;18.47;;;16.47;;
1262;SDS011;62267;50.112;8.704;2023-05-09T14:06:05;16.93;;;14.40;;
1262;SDS011;62267;50.112;8.704;2023-05-09T14:08:36;18.10;;;15.77;;
1262;SDS011;62267;50.112;8.704;2023-05-09T14:11:04;18.93;;;15.37;;
1262;SDS011;62267;50.112;8.704;2023-05-09T14:13:35;17.57;;;15.67;;
1262;SDS011;62267;50.112;8.704;2023-05-09T14:16:02;18.10;;;15.00;;
1262;SDS011;62267;50.112;8.704;2023-05-09T14:18:30;17.23;;;15.40;;
1262;SDS011;62267;50.112;8.704;2023-05-09T14:20:57;19.20;;;16.60;;
1262;SDS011;62267;50.112;8.704;2023-05-09T14:23:25;19.47;;;17.40;;
1262;SDS011;62267;50.112;8.704;2023-05-09T14:25:52;15.20;;;13.70;;
1262;SDS011;62267;50.112;8.704;2023-05-09T14:28:19;20.80;;;16.60;;
1262;SDS011;62267;50.112;8.704;2023-05-09T14:30:46;16.70;;;15.00;;
1262;SDS011;62267;50.112;8.704;2023-05-09T14:33:13;19.60;;;15.37;;
1262;SDS011;62267;50.112;8.704;2023-05-09T14:35:41;17.13;;;15.40;;
1262;SDS011;62267;50.112;8.704;2023-05-09T14:38:08;16.20;;;14.60;;
1262;SDS011;62267;50.112;8.704;2023-05-09T14:40:38;17.03;;;15.27;;
1262;SDS011;62267;50.112;8.704;2023-05-09T14:43:05;16.27;;;14.77;;
1262;SDS011;62267;50.112;8.704;2023-05-09T14:45:34;23.47;;;20.90;;
1262;SDS011;62267;50.112;8.704;2023-05-09T14:48:02;19.83;;;15.43;;
1262;SDS011;62267;50.112;8.704;2023-05-09T14:50:29;16.97;;;15.27;;
1262;SDS011;62267;50.112;8.704;2023-05-09T14:52:56;17.63;;;15.60;;
1262;SDS011;62267;50.112;8.704;2023-05-09T14:55:24;17.70;;;15.80;;
1262;SDS011;62267;50.112;8.704;2023-05-09T14:57:53;17.03;;;15.23;;
1262;SDS011;62267;50.112;8.704;2023-05-09T15:00:21;15.10;;;13.60;;